createdAt,value
2017-07-27T00:00:12.651Z,21.6
2017-07-27T00:00:38.775Z,21.57
2017-07-27T00:01:04.950Z,21.5
2017-07-27T00:01:31.089Z,21.6
2017-07-27T00:01:57.279Z,21.52
2017-07-27T00:02:23.510Z,21.57
2017-07-27T00:02:49.672Z,21.58
2017-07-27T00:03:15.796Z,21.57
2017-07-27T00:03:41.975Z,21.54
2017-07-27T00:04:08.148Z,21.61
2017-07-27T00:04:34.325Z,21.57
2017-07-27T00:05:00.482Z,21.51
2017-07-27T00:05:26.655Z,21.5
2017-07-27T00:05:52.804Z,21.51
2017-07-27T00:06:18.942Z,21.54
2017-07-27T00:06:45.126Z,21.55
2017-07-27T00:07:11.275Z,21.57
2017-07-27T00:07:37.386Z,21.51
2017-07-27T00:08:03.571Z,21.55
2017-07-27T00:08:29.729Z,21.61
2017-07-27T00:08:55.898Z,21.54
2017-07-27T00:09:22.195Z,21.66
2017-07-27T00:09:48.321Z,21.61
2017-07-27T00:10:14.467Z,21.46
2017-07-27T00:10:40.614Z,21.5
2017-07-27T00:11:06.756Z,21.51
2017-07-27T00:11:32.972Z,21.39
2017-07-27T00:11:59.191Z,21.37
2017-07-27T00:12:25.326Z,21.48
2017-07-27T00:12:51.525Z,21.48
2017-07-27T00:13:17.686Z,21.48
2017-07-27T00:13:43.820Z,21.4
2017-07-27T00:14:09.993Z,21.39
2017-07-27T00:14:36.150Z,21.46
2017-07-27T00:15:02.324Z,21.5
2017-07-27T00:15:28.454Z,21.5
2017-07-27T00:15:54.645Z,21.57
2017-07-27T00:16:20.824Z,21.64
2017-07-27T00:16:47.052Z,21.7
2017-07-27T00:17:13.188Z,21.72
2017-07-27T00:17:39.306Z,21.64
2017-07-27T00:18:05.494Z,21.62
2017-07-27T00:18:31.635Z,21.64
2017-07-27T00:18:57.829Z,21.58
2017-07-27T00:19:23.991Z,21.7
2017-07-27T00:19:50.137Z,21.73
2017-07-27T00:20:16.301Z,21.76
2017-07-27T00:20:42.488Z,21.7
2017-07-27T00:21:08.641Z,21.66
2017-07-27T00:21:34.775Z,21.69
2017-07-27T00:22:00.986Z,21.73
2017-07-27T00:22:27.126Z,21.75
2017-07-27T00:22:53.279Z,21.73
2017-07-27T00:23:19.395Z,21.73
2017-07-27T00:23:45.504Z,21.76
2017-07-27T00:24:11.665Z,21.76
2017-07-27T00:24:37.823Z,21.7
2017-07-27T00:25:03.988Z,21.62
2017-07-27T00:25:30.171Z,21.58
2017-07-27T00:25:56.330Z,21.66
2017-07-27T00:26:22.492Z,21.61
2017-07-27T00:26:48.640Z,21.57
2017-07-27T00:27:14.766Z,21.57
2017-07-27T00:27:40.876Z,21.57
2017-07-27T00:28:07.025Z,21.42
2017-07-27T00:28:33.189Z,21.51
2017-07-27T00:28:59.313Z,21.51
2017-07-27T00:29:25.500Z,21.5
2017-07-27T00:29:51.693Z,21.46
2017-07-27T00:30:17.863Z,21.48
2017-07-27T00:30:44.050Z,21.46
2017-07-27T00:31:10.158Z,21.46
2017-07-27T00:31:36.275Z,21.57
2017-07-27T00:32:02.459Z,21.52
2017-07-27T00:32:28.629Z,21.55
2017-07-27T00:32:54.736Z,21.5
2017-07-27T00:33:20.893Z,21.4
2017-07-27T00:33:47.065Z,21.48
2017-07-27T00:34:13.219Z,21.45
2017-07-27T00:34:39.595Z,21.45
2017-07-27T00:35:05.745Z,21.42
2017-07-27T00:35:31.901Z,21.42
2017-07-27T00:35:58.106Z,21.29
2017-07-27T00:36:24.277Z,21.33
2017-07-27T00:36:50.435Z,21.45
2017-07-27T00:37:16.581Z,21.39
2017-07-27T00:37:42.717Z,21.45
2017-07-27T00:38:08.870Z,21.5
2017-07-27T00:38:35.018Z,21.52
2017-07-27T00:39:01.157Z,21.58
2017-07-27T00:39:27.349Z,21.55
2017-07-27T00:39:53.474Z,21.55
2017-07-27T00:40:19.584Z,21.52
2017-07-27T00:40:45.788Z,21.55
2017-07-27T00:41:11.942Z,21.36
2017-07-27T00:41:38.137Z,21.37
2017-07-27T00:42:04.307Z,21.32
2017-07-27T00:42:30.463Z,21.3
2017-07-27T00:42:56.599Z,21.35
2017-07-27T00:43:22.771Z,21.29
2017-07-27T00:43:48.956Z,21.32
2017-07-27T00:44:15.102Z,21.29
2017-07-27T00:44:41.253Z,21.32
2017-07-27T00:45:07.424Z,21.36
2017-07-27T00:45:33.597Z,21.2
2017-07-27T00:45:59.788Z,21.22
2017-07-27T00:46:25.957Z,21.2
2017-07-27T00:46:52.069Z,21.22
2017-07-27T00:47:18.228Z,21.3
2017-07-27T00:47:44.412Z,21.25
2017-07-27T00:48:10.525Z,21.2
2017-07-27T00:48:36.714Z,21.25
2017-07-27T00:49:02.889Z,21.09
2017-07-27T00:49:29.086Z,21.07
2017-07-27T00:49:55.210Z,21.11
2017-07-27T00:50:21.343Z,21.07
2017-07-27T00:50:47.505Z,21.14
2017-07-27T00:51:13.674Z,21.02
2017-07-27T00:51:39.813Z,21.09
2017-07-27T00:52:05.936Z,21.14
2017-07-27T00:52:32.121Z,21.09
2017-07-27T00:52:58.283Z,21.17
2017-07-27T00:53:24.409Z,21.05
2017-07-27T00:53:50.566Z,21.11
2017-07-27T00:54:16.704Z,21.07
2017-07-27T00:54:42.876Z,20.92
2017-07-27T00:55:09.033Z,20.99
2017-07-27T00:55:35.233Z,21
2017-07-27T00:56:01.415Z,20.92
2017-07-27T00:56:27.586Z,21.02
2017-07-27T00:56:53.763Z,20.93
2017-07-27T00:57:19.950Z,20.97
2017-07-27T00:57:46.087Z,21
2017-07-27T00:58:12.238Z,20.97
2017-07-27T00:58:38.390Z,21.06
2017-07-27T00:59:04.564Z,20.96
2017-07-27T00:59:30.706Z,20.99
2017-07-27T00:59:56.874Z,20.88
2017-07-27T01:00:23.097Z,20.93
2017-07-27T01:00:49.264Z,20.95
2017-07-27T01:01:15.424Z,20.8
2017-07-27T01:01:41.541Z,20.87
2017-07-27T01:02:07.734Z,20.87
2017-07-27T01:02:33.885Z,20.84
2017-07-27T01:03:00.064Z,20.84
2017-07-27T01:03:26.205Z,20.87
2017-07-27T01:03:52.469Z,20.92
2017-07-27T01:04:18.602Z,20.87
2017-07-27T01:04:44.710Z,20.88
2017-07-27T01:05:10.914Z,20.9
2017-07-27T01:05:37.136Z,20.78
2017-07-27T01:06:03.242Z,20.9
2017-07-27T01:06:29.359Z,20.75
2017-07-27T01:06:55.501Z,20.88
2017-07-27T01:07:21.712Z,20.75
2017-07-27T01:07:47.929Z,20.77
2017-07-27T01:08:14.154Z,20.81
2017-07-27T01:08:40.298Z,20.81
2017-07-27T01:09:06.452Z,20.78
2017-07-27T01:09:32.618Z,20.74
2017-07-27T01:09:58.734Z,20.8
2017-07-27T01:10:24.919Z,20.82
2017-07-27T01:10:51.087Z,20.84
2017-07-27T01:11:17.254Z,20.87
2017-07-27T01:11:43.437Z,20.92
2017-07-27T01:12:09.619Z,20.88
2017-07-27T01:12:35.741Z,20.85
2017-07-27T01:13:01.853Z,20.84
2017-07-27T01:13:27.989Z,20.88
2017-07-27T01:13:54.179Z,20.92
2017-07-27T01:14:20.294Z,20.97
2017-07-27T01:14:46.407Z,20.95
2017-07-27T01:15:12.596Z,21.02
2017-07-27T01:15:38.745Z,20.96
2017-07-27T01:16:04.887Z,21.07
2017-07-27T01:16:31.043Z,21.06
2017-07-27T01:16:57.193Z,21.09
2017-07-27T01:17:23.304Z,21.07
2017-07-27T01:17:49.490Z,21.14
2017-07-27T01:18:15.659Z,21.11
2017-07-27T01:18:41.851Z,21.09
2017-07-27T01:19:08.027Z,21.11
2017-07-27T01:19:34.220Z,20.96
2017-07-27T01:20:00.369Z,20.97
2017-07-27T01:20:26.581Z,20.97
2017-07-27T01:20:52.690Z,20.97
2017-07-27T01:21:18.842Z,20.96
2017-07-27T01:21:45.028Z,20.92
2017-07-27T01:22:11.195Z,21.03
2017-07-27T01:22:37.343Z,21.05
2017-07-27T01:23:03.559Z,21
2017-07-27T01:23:29.790Z,21.14
2017-07-27T01:23:55.983Z,21.03
2017-07-27T01:24:22.143Z,20.93
2017-07-27T01:24:48.255Z,20.95
2017-07-27T01:25:14.445Z,20.88
2017-07-27T01:25:40.629Z,20.93
2017-07-27T01:26:06.753Z,20.9
2017-07-27T01:26:32.863Z,20.75
2017-07-27T01:26:58.987Z,20.74
2017-07-27T01:27:25.201Z,20.8
2017-07-27T01:27:51.335Z,20.87
2017-07-27T01:28:17.552Z,20.84
2017-07-27T01:28:43.710Z,20.82
2017-07-27T01:29:09.851Z,20.9
2017-07-27T01:29:35.968Z,20.95
2017-07-27T01:30:02.102Z,20.88
2017-07-27T01:30:28.320Z,20.93
2017-07-27T01:30:54.476Z,20.9
2017-07-27T01:31:20.584Z,20.9
2017-07-27T01:31:46.741Z,20.84
2017-07-27T01:32:12.893Z,20.81
2017-07-27T01:32:39.027Z,20.82
2017-07-27T01:33:05.149Z,20.74
2017-07-27T01:33:31.272Z,20.81
2017-07-27T01:33:57.414Z,20.77
2017-07-27T01:34:23.554Z,20.8
2017-07-27T01:34:49.744Z,20.74
2017-07-27T01:35:16.032Z,20.82
2017-07-27T01:35:42.224Z,20.8
2017-07-27T01:36:08.354Z,20.85
2017-07-27T01:36:34.531Z,20.88
2017-07-27T01:37:00.657Z,20.84
2017-07-27T01:37:26.828Z,20.69
2017-07-27T01:37:52.940Z,20.74
2017-07-27T01:38:19.100Z,20.67
2017-07-27T01:38:45.245Z,20.72
2017-07-27T01:39:11.456Z,20.67
2017-07-27T01:39:37.593Z,20.62
2017-07-27T01:40:03.740Z,20.66
2017-07-27T01:40:29.921Z,20.67
2017-07-27T01:40:56.062Z,20.82
2017-07-27T01:41:22.206Z,20.78
2017-07-27T01:41:48.365Z,20.77
2017-07-27T01:42:14.568Z,20.78
2017-07-27T01:42:40.790Z,20.66
2017-07-27T01:43:06.974Z,20.75
2017-07-27T01:43:33.117Z,20.65
2017-07-27T01:43:59.252Z,20.69
2017-07-27T01:44:25.477Z,20.69
2017-07-27T01:44:51.632Z,20.69
2017-07-27T01:45:17.796Z,20.72
2017-07-27T01:45:44.004Z,20.78
2017-07-27T01:46:10.149Z,20.69
2017-07-27T01:46:36.259Z,20.69
2017-07-27T01:47:02.383Z,20.74
2017-07-27T01:47:28.524Z,20.8
2017-07-27T01:47:54.715Z,20.78
2017-07-27T01:48:20.867Z,20.75
2017-07-27T01:48:46.958Z,20.65
2017-07-27T01:49:13.089Z,20.62
2017-07-27T01:49:39.278Z,20.7
2017-07-27T01:50:05.395Z,20.66
2017-07-27T01:50:31.519Z,20.69
2017-07-27T01:50:57.652Z,20.66
2017-07-27T01:51:23.799Z,20.78
2017-07-27T01:51:49.977Z,20.8
2017-07-27T01:52:16.093Z,20.75
2017-07-27T01:52:42.245Z,20.78
2017-07-27T01:53:08.406Z,20.8
2017-07-27T01:53:34.520Z,20.8
2017-07-27T01:54:00.694Z,20.78
2017-07-27T01:54:26.910Z,20.84
2017-07-27T01:54:53.053Z,20.9
2017-07-27T01:55:19.152Z,20.87
2017-07-27T01:55:45.283Z,20.82
2017-07-27T01:56:11.375Z,20.77
2017-07-27T01:56:37.517Z,20.82
2017-07-27T01:57:03.671Z,20.88
2017-07-27T01:57:29.795Z,20.77
2017-07-27T01:57:55.958Z,20.75
2017-07-27T01:58:22.102Z,20.75
2017-07-27T01:58:48.223Z,20.8
2017-07-27T01:59:14.382Z,20.81
2017-07-27T01:59:40.530Z,20.72
2017-07-27T02:00:06.669Z,20.81
2017-07-27T02:00:32.805Z,20.72
2017-07-27T02:00:58.982Z,20.75
2017-07-27T02:01:25.119Z,20.77
2017-07-27T02:01:51.253Z,20.72
2017-07-27T02:02:17.410Z,20.78
2017-07-27T02:02:43.537Z,20.69
2017-07-27T02:03:09.713Z,20.7
2017-07-27T02:03:35.830Z,20.67
2017-07-27T02:04:01.966Z,20.62
2017-07-27T02:04:28.143Z,20.67
2017-07-27T02:04:54.234Z,20.69
2017-07-27T02:05:20.389Z,20.6
2017-07-27T02:05:46.545Z,20.66
2017-07-27T02:06:12.708Z,20.59
2017-07-27T02:06:38.889Z,20.66
2017-07-27T02:07:05.050Z,20.72
2017-07-27T02:07:31.195Z,20.8
2017-07-27T02:07:57.370Z,20.8
2017-07-27T02:08:23.505Z,20.81
2017-07-27T02:08:49.718Z,20.78
2017-07-27T02:09:15.870Z,20.69
2017-07-27T02:09:41.982Z,20.67
2017-07-27T02:10:08.126Z,20.65
2017-07-27T02:10:34.264Z,20.67
2017-07-27T02:11:00.451Z,20.63
2017-07-27T02:11:26.547Z,20.59
2017-07-27T02:11:52.662Z,20.6
2017-07-27T02:12:18.796Z,20.66
2017-07-27T02:12:44.920Z,20.59
2017-07-27T02:13:11.037Z,20.62
2017-07-27T02:13:37.165Z,20.48
2017-07-27T02:14:03.303Z,20.5
2017-07-27T02:14:29.490Z,20.4
2017-07-27T02:14:55.640Z,20.47
2017-07-27T02:15:21.780Z,20.4
2017-07-27T02:15:47.887Z,20.36
2017-07-27T02:16:14.015Z,20.32
2017-07-27T02:16:40.129Z,20.26
2017-07-27T02:17:06.287Z,20.25
2017-07-27T02:17:32.446Z,20.29
2017-07-27T02:17:58.609Z,20.29
2017-07-27T02:18:24.734Z,20.18
2017-07-27T02:18:50.868Z,20.1
2017-07-27T02:19:17.011Z,20.09
2017-07-27T02:19:43.170Z,20.11
2017-07-27T02:20:09.336Z,20.09
2017-07-27T02:20:35.465Z,20.07
2017-07-27T02:21:01.572Z,20.06
2017-07-27T02:21:27.708Z,20.03
2017-07-27T02:21:53.857Z,20.02
2017-07-27T02:22:19.962Z,20.09
2017-07-27T02:22:46.158Z,20.18
2017-07-27T02:23:12.304Z,20.1
2017-07-27T02:23:38.466Z,20.06
2017-07-27T02:24:04.586Z,20.06
2017-07-27T02:24:30.701Z,19.99
2017-07-27T02:24:56.858Z,20.04
2017-07-27T02:25:22.983Z,20.07
2017-07-27T02:25:49.240Z,20.1
2017-07-27T02:26:15.406Z,20.1
2017-07-27T02:26:41.527Z,20.13
2017-07-27T02:27:07.716Z,20.13
2017-07-27T02:27:33.835Z,20.11
2017-07-27T02:27:59.925Z,20.13
2017-07-27T02:28:26.115Z,20.11
2017-07-27T02:28:52.240Z,20.21
2017-07-27T02:29:18.355Z,20.14
2017-07-27T02:29:44.459Z,20.1
2017-07-27T02:30:10.586Z,20.09
2017-07-27T02:30:36.790Z,20.16
2017-07-27T02:31:02.934Z,20.14
2017-07-27T02:31:29.100Z,20.1
2017-07-27T02:31:55.233Z,20.11
2017-07-27T02:32:21.413Z,20.04
2017-07-27T02:32:47.528Z,20.02
2017-07-27T02:33:13.686Z,19.94
2017-07-27T02:33:39.841Z,19.89
2017-07-27T02:34:05.982Z,19.73
2017-07-27T02:34:32.114Z,19.82
2017-07-27T02:34:58.244Z,19.79
2017-07-27T02:35:24.358Z,19.74
2017-07-27T02:35:50.510Z,19.82
2017-07-27T02:36:16.703Z,19.92
2017-07-27T02:36:42.818Z,19.94
2017-07-27T02:37:08.945Z,19.99
2017-07-27T02:37:35.104Z,19.88
2017-07-27T02:38:01.206Z,19.95
2017-07-27T02:38:27.398Z,20
2017-07-27T02:38:53.510Z,19.99
2017-07-27T02:39:19.682Z,19.95
2017-07-27T02:39:45.816Z,20.02
2017-07-27T02:40:11.960Z,19.92
2017-07-27T02:40:38.080Z,20.02
2017-07-27T02:41:04.214Z,20
2017-07-27T02:41:30.343Z,20.03
2017-07-27T02:41:56.496Z,19.95
2017-07-27T02:42:22.581Z,19.92
2017-07-27T02:42:48.759Z,19.91
2017-07-27T02:43:14.891Z,19.96
2017-07-27T02:43:41.061Z,19.94
2017-07-27T02:44:07.205Z,19.85
2017-07-27T02:44:33.312Z,19.95
2017-07-27T02:44:59.461Z,19.94
2017-07-27T02:45:25.630Z,19.92
2017-07-27T02:45:51.848Z,19.81
2017-07-27T02:46:17.973Z,19.79
2017-07-27T02:46:44.113Z,19.85
2017-07-27T02:47:10.245Z,19.73
2017-07-27T02:47:36.394Z,19.82
2017-07-27T02:48:02.499Z,19.82
2017-07-27T02:48:28.639Z,19.84
2017-07-27T02:48:54.801Z,19.71
2017-07-27T02:49:20.938Z,19.74
2017-07-27T02:49:47.063Z,19.73
2017-07-27T02:50:13.228Z,19.7
2017-07-27T02:50:39.357Z,19.7
2017-07-27T02:51:05.484Z,19.66
2017-07-27T02:51:31.576Z,19.7
2017-07-27T02:51:57.755Z,19.71
2017-07-27T02:52:23.916Z,19.67
2017-07-27T02:52:50.006Z,19.74
2017-07-27T02:53:16.155Z,19.67
2017-07-27T02:53:42.315Z,19.7
2017-07-27T02:54:08.407Z,19.69
2017-07-27T02:54:34.755Z,19.66
2017-07-27T02:55:00.861Z,19.69
2017-07-27T02:55:26.980Z,19.64
2017-07-27T02:55:53.094Z,19.7
2017-07-27T02:56:19.203Z,19.69
2017-07-27T02:56:45.327Z,19.77
2017-07-27T02:57:11.466Z,19.71
2017-07-27T02:57:37.652Z,19.79
2017-07-27T02:58:03.752Z,19.79
2017-07-27T02:58:29.902Z,19.86
2017-07-27T02:58:56.021Z,19.79
2017-07-27T02:59:22.137Z,19.82
2017-07-27T02:59:48.327Z,19.67
2017-07-27T03:00:14.453Z,19.74
2017-07-27T03:00:40.568Z,19.7
2017-07-27T03:01:06.698Z,19.71
2017-07-27T03:01:32.850Z,19.67
2017-07-27T03:01:58.991Z,19.67
2017-07-27T03:02:25.096Z,19.69
2017-07-27T03:02:51.257Z,19.7
2017-07-27T03:03:17.368Z,19.74
2017-07-27T03:03:43.492Z,19.67
2017-07-27T03:04:09.614Z,19.76
2017-07-27T03:04:35.745Z,19.79
2017-07-27T03:05:01.928Z,19.64
2017-07-27T03:05:28.064Z,19.7
2017-07-27T03:05:54.217Z,19.66
2017-07-27T03:06:20.350Z,19.67
2017-07-27T03:06:46.462Z,19.7
2017-07-27T03:07:12.588Z,19.71
2017-07-27T03:07:38.774Z,19.76
2017-07-27T03:08:04.888Z,19.74
2017-07-27T03:08:31.034Z,19.82
2017-07-27T03:08:57.185Z,19.77
2017-07-27T03:09:23.339Z,19.74
2017-07-27T03:09:49.473Z,19.84
2017-07-27T03:10:15.614Z,19.81
2017-07-27T03:10:41.791Z,19.86
2017-07-27T03:11:07.924Z,19.88
2017-07-27T03:11:34.014Z,19.79
2017-07-27T03:12:00.135Z,19.67
2017-07-27T03:12:26.267Z,19.7
2017-07-27T03:12:52.358Z,19.85
2017-07-27T03:13:18.501Z,19.91
2017-07-27T03:13:44.659Z,19.77
2017-07-27T03:14:10.789Z,19.81
2017-07-27T03:14:36.946Z,19.81
2017-07-27T03:15:03.055Z,19.81
2017-07-27T03:15:29.174Z,19.85
2017-07-27T03:15:55.308Z,19.89
2017-07-27T03:16:21.457Z,19.77
2017-07-27T03:16:47.595Z,19.82
2017-07-27T03:17:13.757Z,19.82
2017-07-27T03:17:39.905Z,19.84
2017-07-27T03:18:06.044Z,19.86
2017-07-27T03:18:32.179Z,19.92
2017-07-27T03:18:58.281Z,19.77
2017-07-27T03:19:24.419Z,19.85
2017-07-27T03:19:50.575Z,19.77
2017-07-27T03:20:16.711Z,19.82
2017-07-27T03:20:42.855Z,19.67
2017-07-27T03:21:09.004Z,19.67
2017-07-27T03:21:35.293Z,19.86
2017-07-27T03:22:01.399Z,19.84
2017-07-27T03:22:27.581Z,19.84
2017-07-27T03:22:53.720Z,19.84
2017-07-27T03:23:19.875Z,19.82
2017-07-27T03:23:46.012Z,19.82
2017-07-27T03:24:12.175Z,19.71
2017-07-27T03:24:38.301Z,19.86
2017-07-27T03:25:04.435Z,19.79
2017-07-27T03:25:30.580Z,19.82
2017-07-27T03:25:56.676Z,19.86
2017-07-27T03:26:22.773Z,19.85
2017-07-27T03:26:48.930Z,19.77
2017-07-27T03:27:15.063Z,19.84
2017-07-27T03:27:41.149Z,19.81
2017-07-27T03:28:07.277Z,19.92
2017-07-27T03:28:33.412Z,20.03
2017-07-27T03:28:59.556Z,19.92
2017-07-27T03:29:25.678Z,19.99
2017-07-27T03:29:51.812Z,20.02
2017-07-27T03:30:17.985Z,20
2017-07-27T03:30:44.126Z,20
2017-07-27T03:31:10.285Z,19.95
2017-07-27T03:31:36.462Z,19.99
2017-07-27T03:32:02.566Z,20.04
2017-07-27T03:32:28.707Z,19.99
2017-07-27T03:32:54.852Z,20
2017-07-27T03:33:20.989Z,20.02
2017-07-27T03:33:47.111Z,20.11
2017-07-27T03:34:13.272Z,20.11
2017-07-27T03:34:39.432Z,20.18
2017-07-27T03:35:05.533Z,20.11
2017-07-27T03:35:31.672Z,20.16
2017-07-27T03:35:57.800Z,20.19
2017-07-27T03:36:23.954Z,20.22
2017-07-27T03:36:50.045Z,20.21
2017-07-27T03:37:16.175Z,20.22
2017-07-27T03:37:42.337Z,20.18
2017-07-27T03:38:08.449Z,20.11
2017-07-27T03:38:34.550Z,20.06
2017-07-27T03:39:00.713Z,20
2017-07-27T03:39:26.851Z,20.02
2017-07-27T03:39:53.046Z,20
2017-07-27T03:40:19.208Z,19.96
2017-07-27T03:40:45.328Z,19.94
2017-07-27T03:41:11.468Z,19.89
2017-07-27T03:41:37.605Z,20.02
2017-07-27T03:42:03.755Z,19.99
2017-07-27T03:42:29.894Z,19.91
2017-07-27T03:42:56.024Z,20
2017-07-27T03:43:22.171Z,20.07
2017-07-27T03:43:48.309Z,20.04
2017-07-27T03:44:14.452Z,20.11
2017-07-27T03:44:40.544Z,20.11
2017-07-27T03:45:06.734Z,20.11
2017-07-27T03:45:32.831Z,20.09
2017-07-27T03:45:58.948Z,20.07
2017-07-27T03:46:25.104Z,20.09
2017-07-27T03:46:51.204Z,20.11
2017-07-27T03:47:17.294Z,20.09
2017-07-27T03:47:43.424Z,20.09
2017-07-27T03:48:09.615Z,20.09
2017-07-27T03:48:35.758Z,20.14
2017-07-27T03:49:01.935Z,20.1
2017-07-27T03:49:28.097Z,20.14
2017-07-27T03:49:54.232Z,20.18
2017-07-27T03:50:20.363Z,20.11
2017-07-27T03:50:46.473Z,20.11
2017-07-27T03:51:12.579Z,20.11
2017-07-27T03:51:38.746Z,20.1
2017-07-27T03:52:04.856Z,20.14
2017-07-27T03:52:30.980Z,20.07
2017-07-27T03:52:57.112Z,20.18
2017-07-27T03:53:23.253Z,20.14
2017-07-27T03:53:49.373Z,20.14
2017-07-27T03:54:15.471Z,20.16
2017-07-27T03:54:41.601Z,20.16
2017-07-27T03:55:07.790Z,20.22
2017-07-27T03:55:33.901Z,20.18
2017-07-27T03:56:00.025Z,20.14
2017-07-27T03:56:26.159Z,20.19
2017-07-27T03:56:52.273Z,20.21
2017-07-27T03:57:18.394Z,20.16
2017-07-27T03:57:44.526Z,20.21
2017-07-27T03:58:10.672Z,20.11
2017-07-27T03:58:36.762Z,20.16
2017-07-27T03:59:02.953Z,20.07
2017-07-27T03:59:29.101Z,20.11
2017-07-27T03:59:55.260Z,20.11
2017-07-27T04:00:21.403Z,20.04
2017-07-27T04:00:47.499Z,20.06
2017-07-27T04:01:13.689Z,20.07
2017-07-27T04:01:39.808Z,20.1
2017-07-27T04:02:05.948Z,20.04
2017-07-27T04:02:32.088Z,20.07
2017-07-27T04:02:58.210Z,20.06
2017-07-27T04:03:24.350Z,20.1
2017-07-27T04:03:50.508Z,20.09
2017-07-27T04:04:16.666Z,19.96
2017-07-27T04:04:42.830Z,20
2017-07-27T04:05:08.956Z,19.96
2017-07-27T04:05:35.096Z,19.81
2017-07-27T04:06:01.214Z,19.89
2017-07-27T04:06:27.383Z,19.91
2017-07-27T04:06:53.871Z,19.94
2017-07-27T04:07:20.005Z,20.03
2017-07-27T04:07:46.107Z,20.03
2017-07-27T04:08:12.224Z,20.11
2017-07-27T04:08:38.379Z,20.11
2017-07-27T04:09:04.487Z,20.09
2017-07-27T04:09:30.596Z,20.06
2017-07-27T04:09:56.724Z,20.13
2017-07-27T04:10:22.885Z,20.22
2017-07-27T04:10:49.025Z,20.11
2017-07-27T04:11:15.179Z,20.18
2017-07-27T04:11:41.294Z,20.24
2017-07-27T04:12:07.396Z,20.16
2017-07-27T04:12:33.556Z,20.11
2017-07-27T04:12:59.671Z,20.18
2017-07-27T04:13:25.823Z,20.26
2017-07-27T04:13:51.958Z,20.21
2017-07-27T04:14:18.079Z,20.22
2017-07-27T04:14:44.250Z,20.21
2017-07-27T04:15:10.410Z,20.14
2017-07-27T04:15:36.530Z,20.18
2017-07-27T04:16:02.644Z,20.07
2017-07-27T04:16:28.826Z,20.1
2017-07-27T04:16:54.926Z,20.1
2017-07-27T04:17:21.059Z,20.14
2017-07-27T04:17:47.174Z,20.07
2017-07-27T04:18:13.345Z,20.14
2017-07-27T04:18:39.535Z,20.09
2017-07-27T04:19:05.657Z,20.11
2017-07-27T04:19:31.797Z,20.1
2017-07-27T04:19:57.962Z,20.21
2017-07-27T04:20:24.059Z,20.1
2017-07-27T04:20:50.197Z,20.1
2017-07-27T04:21:16.331Z,20.06
2017-07-27T04:21:42.433Z,20.1
2017-07-27T04:22:08.574Z,20.1
2017-07-27T04:22:34.727Z,20.13
2017-07-27T04:23:00.861Z,20.19
2017-07-27T04:23:26.997Z,20.25
2017-07-27T04:23:53.144Z,20.22
2017-07-27T04:24:19.305Z,20.21
2017-07-27T04:24:45.447Z,20.29
2017-07-27T04:25:11.617Z,20.28
2017-07-27T04:25:37.806Z,20.31
2017-07-27T04:26:03.950Z,20.31
2017-07-27T04:26:30.042Z,20.26
2017-07-27T04:26:56.180Z,20.29
2017-07-27T04:27:22.279Z,20.11
2017-07-27T04:27:48.436Z,20.21
2017-07-27T04:28:14.524Z,20.28
2017-07-27T04:28:40.622Z,20.28
2017-07-27T04:29:06.755Z,20.29
2017-07-27T04:29:32.851Z,20.32
2017-07-27T04:29:58.989Z,20.4
2017-07-27T04:30:25.209Z,20.43
2017-07-27T04:30:51.332Z,20.28
2017-07-27T04:31:17.448Z,20.26
2017-07-27T04:31:43.583Z,20.26
2017-07-27T04:32:09.709Z,20.19
2017-07-27T04:32:35.850Z,20.1
2017-07-27T04:33:02.060Z,20.13
2017-07-27T04:33:28.177Z,20.14
2017-07-27T04:33:54.288Z,20.09
2017-07-27T04:34:20.386Z,20.14
2017-07-27T04:34:46.501Z,20.02
2017-07-27T04:35:12.665Z,19.94
2017-07-27T04:35:38.795Z,20.02
2017-07-27T04:36:04.910Z,20.04
2017-07-27T04:36:31.091Z,20.11
2017-07-27T04:36:57.225Z,20.07
2017-07-27T04:37:23.612Z,20.1
2017-07-27T04:37:49.712Z,20.1
2017-07-27T04:38:15.846Z,20.21
2017-07-27T04:38:41.962Z,20.16
2017-07-27T04:39:08.123Z,20.16
2017-07-27T04:39:34.308Z,20.18
2017-07-27T04:40:00.411Z,20.13
2017-07-27T04:40:26.545Z,20.21
2017-07-27T04:40:52.679Z,20.21
2017-07-27T04:41:18.829Z,20.21
2017-07-27T04:41:44.990Z,20.14
2017-07-27T04:42:11.163Z,20.1
2017-07-27T04:42:37.285Z,20.09
2017-07-27T04:43:03.476Z,20.18
2017-07-27T04:43:29.594Z,20.1
2017-07-27T04:43:55.684Z,20.04
2017-07-27T04:44:21.816Z,20.13
2017-07-27T04:44:47.917Z,20.1
2017-07-27T04:45:14.079Z,20.18
2017-07-27T04:45:40.222Z,20.18
2017-07-27T04:46:06.369Z,20.19
2017-07-27T04:46:32.502Z,20.28
2017-07-27T04:46:58.651Z,20.26
2017-07-27T04:47:24.815Z,20.24
2017-07-27T04:47:50.979Z,20.18
2017-07-27T04:48:17.101Z,20.21
2017-07-27T04:48:43.192Z,20.14
2017-07-27T04:49:09.301Z,20.13
2017-07-27T04:49:35.429Z,20.16
2017-07-27T04:50:01.552Z,20.19
2017-07-27T04:50:27.676Z,20.29
2017-07-27T04:50:53.766Z,20.26
2017-07-27T04:51:19.876Z,20.18
2017-07-27T04:51:46.003Z,20.13
2017-07-27T04:52:12.140Z,20.21
2017-07-27T04:52:38.320Z,20.24
2017-07-27T04:53:04.502Z,20.25
2017-07-27T04:53:30.641Z,20.26
2017-07-27T04:53:56.743Z,20.24
2017-07-27T04:54:22.877Z,20.29
2017-07-27T04:54:49.017Z,20.22
2017-07-27T04:55:15.144Z,20.29
2017-07-27T04:55:41.268Z,20.32
2017-07-27T04:56:07.426Z,20.32
2017-07-27T04:56:33.554Z,20.34
2017-07-27T04:56:59.646Z,20.28
2017-07-27T04:57:25.773Z,20.29
2017-07-27T04:57:51.879Z,20.26
2017-07-27T04:58:17.992Z,20.34
2017-07-27T04:58:44.117Z,20.36
2017-07-27T04:59:10.276Z,20.32
2017-07-27T04:59:36.419Z,20.34
2017-07-27T05:00:02.538Z,20.37
2017-07-27T05:00:28.699Z,20.29
2017-07-27T05:00:54.821Z,20.32
2017-07-27T05:01:21.010Z,20.32
2017-07-27T05:01:47.174Z,20.31
2017-07-27T05:02:13.348Z,20.4
2017-07-27T05:02:39.482Z,20.44
2017-07-27T05:03:05.601Z,20.4
2017-07-27T05:03:31.697Z,20.44
2017-07-27T05:03:57.833Z,20.44
2017-07-27T05:04:23.955Z,20.43
2017-07-27T05:04:50.093Z,20.26
2017-07-27T05:05:16.262Z,20.39
2017-07-27T05:05:42.435Z,20.39
2017-07-27T05:06:08.528Z,20.44
2017-07-27T05:06:34.683Z,20.48
2017-07-27T05:07:00.811Z,20.4
2017-07-27T05:07:26.927Z,20.44
2017-07-27T05:07:53.105Z,20.4
2017-07-27T05:08:19.268Z,20.48
2017-07-27T05:08:45.406Z,20.43
2017-07-27T05:09:11.553Z,20.44
2017-07-27T05:09:37.714Z,20.41
2017-07-27T05:10:03.890Z,20.44
2017-07-27T05:10:30.029Z,20.43
2017-07-27T05:10:56.221Z,20.48
2017-07-27T05:11:22.368Z,20.48
2017-07-27T05:11:48.510Z,20.43
2017-07-27T05:12:14.666Z,20.29
2017-07-27T05:12:40.788Z,20.43
2017-07-27T05:13:06.978Z,20.36
2017-07-27T05:13:33.120Z,20.4
2017-07-27T05:13:59.241Z,20.44
2017-07-27T05:14:25.456Z,20.47
2017-07-27T05:14:51.577Z,20.47
2017-07-27T05:15:17.718Z,20.4
2017-07-27T05:15:43.886Z,20.37
2017-07-27T05:16:09.975Z,20.39
2017-07-27T05:16:36.141Z,20.51
2017-07-27T05:17:02.273Z,20.36
2017-07-27T05:17:28.399Z,20.41
2017-07-27T05:17:54.501Z,20.44
2017-07-27T05:18:20.620Z,20.4
2017-07-27T05:18:46.735Z,20.39
2017-07-27T05:19:12.875Z,20.37
2017-07-27T05:19:38.998Z,20.43
2017-07-27T05:20:05.115Z,20.36
2017-07-27T05:20:31.245Z,20.4
2017-07-27T05:20:57.398Z,20.36
2017-07-27T05:21:23.563Z,20.32
2017-07-27T05:21:49.668Z,20.39
2017-07-27T05:22:15.802Z,20.31
2017-07-27T05:22:41.940Z,20.4
2017-07-27T05:23:08.092Z,20.39
2017-07-27T05:23:34.214Z,20.32
2017-07-27T05:24:00.373Z,20.29
2017-07-27T05:24:26.529Z,20.26
2017-07-27T05:24:52.620Z,20.29
2017-07-27T05:25:18.772Z,20.29
2017-07-27T05:25:44.881Z,20.19
2017-07-27T05:26:10.969Z,20.11
2017-07-27T05:26:37.120Z,20.22
2017-07-27T05:27:03.226Z,20.14
2017-07-27T05:27:29.389Z,20.21
2017-07-27T05:27:55.488Z,20.11
2017-07-27T05:28:21.652Z,20.22
2017-07-27T05:28:47.795Z,20.29
2017-07-27T05:29:13.982Z,20.32
2017-07-27T05:29:40.094Z,20.36
2017-07-27T05:30:06.221Z,20.4
2017-07-27T05:30:32.328Z,20.39
2017-07-27T05:30:58.419Z,20.37
2017-07-27T05:31:24.517Z,20.36
2017-07-27T05:31:50.653Z,20.4
2017-07-27T05:32:16.775Z,20.26
2017-07-27T05:32:42.891Z,20.22
2017-07-27T05:33:09.000Z,20.21
2017-07-27T05:33:35.126Z,20.28
2017-07-27T05:34:01.242Z,20.28
2017-07-27T05:34:27.457Z,20.32
2017-07-27T05:34:53.577Z,20.32
2017-07-27T05:35:19.686Z,20.37
2017-07-27T05:35:45.856Z,20.36
2017-07-27T05:36:11.971Z,20.31
2017-07-27T05:36:38.081Z,20.28
2017-07-27T05:37:04.204Z,20.41
2017-07-27T05:37:30.320Z,20.51
2017-07-27T05:37:56.453Z,20.39
2017-07-27T05:38:22.611Z,20.39